createdAt,value
2022-07-31T00:00:12.027Z,2.83
2022-07-31T00:02:41.182Z,2.70
2022-07-31T00:05:07.824Z,3.03
2022-07-31T00:07:34.209Z,3.07
2022-07-31T00:10:00.512Z,3.40
2022-07-31T00:12:26.866Z,2.97
2022-07-31T00:14:53.197Z,5.30
2022-07-31T00:17:20.048Z,2.77
2022-07-31T00:19:46.927Z,3.27
2022-07-31T00:22:13.466Z,3.60
2022-07-31T00:24:39.768Z,3.17
2022-07-31T00:27:06.502Z,3.93
2022-07-31T00:29:33.249Z,3.73
2022-07-31T00:31:59.695Z,3.63
2022-07-31T00:34:26.001Z,4.27
2022-07-31T00:36:52.370Z,4.00
2022-07-31T00:39:18.961Z,3.27
2022-07-31T00:41:46.561Z,3.60
2022-07-31T00:44:13.468Z,3.53
2022-07-31T00:46:41.278Z,4.10
2022-07-31T00:49:10.015Z,4.37
2022-07-31T00:51:37.805Z,3.70
2022-07-31T00:54:04.830Z,4.60
2022-07-31T00:56:31.192Z,4.30
2022-07-31T00:58:57.584Z,6.47
2022-07-31T01:01:23.998Z,5.03
2022-07-31T01:03:50.650Z,4.67
2022-07-31T01:06:17.157Z,4.03
2022-07-31T01:08:43.674Z,4.10
2022-07-31T01:11:33.554Z,4.30
2022-07-31T01:14:01.544Z,5.40
2022-07-31T01:16:32.837Z,5.00
2022-07-31T01:19:03.196Z,4.73
2022-07-31T01:21:35.898Z,5.00
2022-07-31T01:24:11.036Z,4.27
2022-07-31T01:26:59.646Z,4.90
2022-07-31T01:29:35.209Z,6.00
2022-07-31T01:32:10.277Z,4.67
2022-07-31T01:34:54.408Z,4.77
2022-07-31T01:37:29.524Z,5.47
2022-07-31T01:40:04.071Z,5.57
2022-07-31T01:42:34.461Z,18.43
2022-07-31T01:45:02.803Z,5.87
2022-07-31T01:47:32.789Z,5.30
2022-07-31T01:50:02.631Z,5.70
2022-07-31T01:52:31.511Z,5.53
2022-07-31T01:55:00.629Z,5.87
2022-07-31T01:57:29.964Z,5.50
2022-07-31T02:00:04.971Z,5.60
2022-07-31T02:02:42.605Z,5.73
2022-07-31T02:05:11.723Z,5.33
2022-07-31T02:07:40.890Z,5.33
2022-07-31T02:10:11.142Z,5.60
2022-07-31T02:12:38.162Z,5.00
2022-07-31T02:15:06.496Z,6.17
2022-07-31T02:17:34.769Z,6.97
2022-07-31T02:20:25.432Z,5.00
2022-07-31T02:22:57.204Z,5.53
2022-07-31T02:25:23.798Z,5.60
2022-07-31T02:27:55.425Z,5.67
2022-07-31T02:30:26.802Z,5.40
2022-07-31T02:33:05.720Z,6.03
2022-07-31T02:35:32.729Z,5.57
2022-07-31T02:37:59.544Z,5.27
2022-07-31T02:40:27.473Z,6.10
2022-07-31T02:42:54.792Z,5.67
2022-07-31T02:45:22.995Z,5.07
2022-07-31T02:47:49.494Z,5.90
2022-07-31T02:50:18.936Z,5.53
2022-07-31T02:52:47.272Z,5.23
2022-07-31T02:55:14.033Z,5.80
2022-07-31T02:57:41.445Z,4.67
2022-07-31T03:00:15.087Z,5.33
2022-07-31T03:02:42.254Z,5.60
2022-07-31T03:05:08.865Z,6.93
2022-07-31T03:07:35.359Z,5.53
2022-07-31T03:10:01.846Z,5.80
2022-07-31T03:12:43.101Z,6.27
2022-07-31T03:15:13.613Z,5.60
2022-07-31T03:17:41.861Z,6.27
2022-07-31T03:20:11.841Z,6.10
2022-07-31T03:22:39.816Z,5.47
2022-07-31T03:25:08.019Z,7.13
2022-07-31T03:27:34.752Z,6.33
2022-07-31T03:30:01.335Z,5.50
2022-07-31T03:32:27.923Z,6.30
2022-07-31T03:34:54.662Z,5.87
2022-07-31T03:37:21.069Z,6.07
2022-07-31T03:39:47.423Z,6.37
2022-07-31T03:42:19.122Z,6.00
2022-07-31T03:44:47.541Z,7.00
2022-07-31T03:47:16.588Z,6.10
2022-07-31T03:49:43.687Z,6.13
2022-07-31T03:52:12.534Z,5.80
2022-07-31T03:54:40.128Z,6.13
2022-07-31T03:57:21.948Z,5.83
2022-07-31T03:59:56.225Z,6.43
2022-07-31T04:02:27.808Z,5.63
2022-07-31T04:05:10.167Z,6.57
2022-07-31T04:07:38.668Z,5.67
2022-07-31T04:10:05.671Z,5.63
2022-07-31T04:12:32.033Z,6.00
2022-07-31T04:14:58.383Z,5.50
2022-07-31T04:17:25.664Z,6.37
2022-07-31T04:19:52.146Z,6.70
2022-07-31T04:22:18.631Z,5.40
2022-07-31T04:24:45.681Z,5.97
2022-07-31T04:27:30.677Z,5.73
2022-07-31T04:29:57.696Z,6.00
2022-07-31T04:32:24.546Z,5.73
2022-07-31T04:34:54.221Z,5.73
2022-07-31T04:37:20.984Z,5.90
2022-07-31T04:39:47.858Z,5.97
2022-07-31T04:42:14.233Z,6.50
2022-07-31T04:44:41.432Z,5.13
2022-07-31T04:47:08.437Z,4.97
2022-07-31T04:49:40.815Z,5.53
2022-07-31T04:52:07.611Z,5.47
2022-07-31T04:54:34.495Z,5.17
2022-07-31T04:57:01.439Z,5.83
2022-07-31T04:59:59.733Z,5.13
2022-07-31T05:02:14.612Z,5.70
2022-07-31T05:04:41.122Z,5.07
2022-07-31T05:07:07.446Z,5.43
2022-07-31T05:09:36.376Z,6.10
2022-07-31T05:12:04.747Z,4.93
2022-07-31T05:14:31.854Z,12.00
2022-07-31T05:16:58.961Z,5.50
2022-07-31T05:19:30.272Z,5.33
2022-07-31T05:22:15.448Z,6.17
2022-07-31T05:24:48.225Z,6.33
2022-07-31T05:27:14.778Z,5.90
2022-07-31T05:29:42.203Z,4.50
2022-07-31T05:32:09.469Z,5.23
2022-07-31T05:34:36.792Z,6.07
2022-07-31T05:37:03.393Z,6.13
2022-07-31T05:39:31.925Z,6.73
2022-07-31T05:42:16.714Z,6.07
2022-07-31T05:45:01.535Z,13.43
2022-07-31T05:47:39.959Z,8.00
2022-07-31T05:50:08.392Z,9.17
2022-07-31T05:52:34.912Z,6.23
2022-07-31T05:55:28.580Z,6.37
2022-07-31T05:58:13.569Z,6.33
2022-07-31T06:00:42.876Z,7.47
2022-07-31T06:03:10.685Z,5.93
2022-07-31T06:06:12.235Z,6.63
2022-07-31T06:08:43.815Z,5.83
2022-07-31T06:11:10.287Z,5.33
2022-07-31T06:13:37.351Z,7.27
2022-07-31T06:16:19.325Z,7.70
2022-07-31T06:18:45.812Z,8.27
2022-07-31T06:23:37.734Z,9.13
2022-07-31T06:26:37.619Z,13.73
2022-07-31T06:29:05.171Z,9.17
2022-07-31T06:31:31.606Z,11.13
2022-07-31T06:33:58.829Z,8.63
2022-07-31T06:36:32.916Z,8.43
2022-07-31T06:39:01.373Z,11.80
2022-07-31T06:41:46.327Z,8.77
2022-07-31T06:44:28.708Z,7.87
2022-07-31T06:50:01.896Z,8.40
2022-07-31T06:52:33.587Z,9.30
2022-07-31T06:55:01.316Z,11.10
2022-07-31T06:57:27.726Z,8.33
2022-07-31T06:59:54.547Z,8.80
2022-07-31T07:02:21.948Z,8.77
2022-07-31T07:05:00.761Z,10.57
2022-07-31T07:07:35.099Z,9.67
2022-07-31T07:10:01.655Z,9.03
2022-07-31T07:12:46.601Z,9.53
2022-07-31T07:15:14.693Z,9.80
2022-07-31T07:17:41.940Z,9.03
2022-07-31T07:20:14.088Z,8.77
2022-07-31T07:22:40.757Z,8.00
2022-07-31T07:25:08.139Z,13.33
2022-07-31T07:27:34.858Z,11.17
2022-07-31T07:30:02.321Z,9.20
2022-07-31T07:32:29.066Z,11.70
2022-07-31T07:35:00.000Z,9.00
2022-07-31T07:37:45.290Z,7.97
2022-07-31T07:40:12.417Z,8.83
2022-07-31T07:42:38.888Z,6.63
2022-07-31T07:45:07.914Z,7.33
2022-07-31T07:48:05.614Z,8.17
2022-07-31T07:50:22.684Z,6.63
2022-07-31T07:53:12.906Z,7.23
2022-07-31T07:56:01.369Z,7.97
2022-07-31T07:58:46.191Z,6.37
2022-07-31T08:01:31.317Z,4.67
2022-07-31T08:04:08.168Z,6.53
2022-07-31T08:06:34.610Z,4.70
2022-07-31T08:09:00.941Z,4.70
2022-07-31T08:11:47.633Z,4.37
2022-07-31T08:14:23.044Z,5.43
2022-07-31T08:17:16.262Z,9.73
2022-07-31T08:19:42.632Z,3.93
2022-07-31T08:22:09.255Z,4.30
2022-07-31T08:24:35.812Z,4.17
2022-07-31T08:27:21.516Z,3.70
2022-07-31T08:29:48.445Z,2.93
2022-07-31T08:32:19.697Z,2.37
2022-07-31T08:35:04.726Z,3.17
2022-07-31T08:37:50.935Z,3.63
2022-07-31T08:40:19.836Z,3.07
2022-07-31T08:42:47.018Z,2.70
2022-07-31T08:45:14.053Z,2.50
2022-07-31T08:47:49.009Z,3.00
2022-07-31T08:50:22.101Z,3.70
2022-07-31T08:52:54.613Z,3.43
2022-07-31T08:55:57.787Z,3.33
2022-07-31T08:58:28.354Z,2.80
2022-07-31T09:00:55.410Z,3.97
2022-07-31T09:03:22.428Z,4.60
2022-07-31T09:05:52.687Z,4.30
2022-07-31T09:08:19.659Z,7.23
2022-07-31T09:10:50.145Z,4.33
2022-07-31T09:13:18.938Z,4.43
2022-07-31T09:15:46.620Z,4.40
2022-07-31T09:18:18.803Z,5.30
2022-07-31T09:20:54.817Z,6.00
2022-07-31T09:23:22.449Z,4.60
2022-07-31T09:25:59.575Z,4.77
2022-07-31T09:28:37.912Z,4.00
2022-07-31T09:31:05.883Z,3.30
2022-07-31T09:34:08.161Z,4.03
2022-07-31T09:36:40.323Z,3.77
2022-07-31T09:39:50.162Z,5.13
2022-07-31T09:42:45.581Z,5.37
2022-07-31T09:45:20.296Z,4.67
2022-07-31T09:47:46.984Z,4.10
2022-07-31T09:50:14.432Z,4.30
2022-07-31T09:52:40.959Z,4.30
2022-07-31T09:55:16.211Z,5.00
2022-07-31T09:57:57.473Z,6.10
2022-07-31T10:00:27.009Z,6.60
2022-07-31T10:02:55.664Z,6.57
2022-07-31T10:05:23.647Z,6.30
2022-07-31T10:07:50.796Z,6.03
2022-07-31T10:10:28.463Z,5.07
2022-07-31T10:13:03.421Z,4.40
2022-07-31T10:15:32.990Z,4.60
2022-07-31T10:18:36.127Z,5.03
2022-07-31T10:21:27.725Z,3.90
2022-07-31T10:24:07.299Z,4.70
2022-07-31T10:26:58.552Z,3.57
2022-07-31T10:29:20.446Z,4.63
2022-07-31T10:31:47.527Z,3.97
2022-07-31T10:34:17.426Z,4.23
2022-07-31T10:36:47.145Z,3.20
2022-07-31T10:39:41.966Z,3.93
2022-07-31T10:42:19.416Z,3.57
2022-07-31T10:44:54.174Z,3.83
2022-07-31T10:47:27.130Z,3.73
2022-07-31T10:50:20.376Z,3.80
2022-07-31T10:53:15.512Z,3.00
2022-07-31T10:56:01.516Z,3.20
2022-07-31T10:58:46.938Z,2.27
2022-07-31T11:01:32.013Z,3.27
2022-07-31T11:04:05.330Z,2.90
2022-07-31T11:06:52.058Z,2.67
2022-07-31T11:09:45.410Z,3.23
2022-07-31T11:12:36.989Z,3.07
2022-07-31T11:15:24.167Z,2.93
2022-07-31T11:18:16.599Z,2.67
2022-07-31T11:21:13.544Z,2.53
2022-07-31T11:24:01.123Z,3.20
2022-07-31T11:26:33.133Z,2.53
2022-07-31T11:29:58.898Z,2.80
2022-07-31T11:31:54.691Z,3.00
2022-07-31T11:34:21.165Z,3.50
2022-07-31T11:36:51.199Z,3.03
2022-07-31T11:39:18.371Z,3.90
2022-07-31T11:41:45.701Z,3.57
2022-07-31T11:44:12.356Z,3.47
2022-07-31T11:46:38.927Z,3.43
2022-07-31T11:49:05.799Z,3.47
2022-07-31T11:51:32.397Z,3.57
2022-07-31T11:53:59.908Z,7.30
2022-07-31T11:56:27.119Z,10.50
2022-07-31T11:58:57.531Z,6.23
2022-07-31T12:01:24.825Z,4.23
2022-07-31T12:03:51.843Z,4.00
2022-07-31T12:06:18.886Z,4.57
2022-07-31T12:08:46.344Z,4.17
2022-07-31T12:11:12.996Z,3.50
2022-07-31T12:13:39.455Z,3.20
2022-07-31T12:16:09.799Z,3.80
2022-07-31T12:18:46.960Z,3.87
2022-07-31T12:21:14.086Z,3.20
2022-07-31T12:23:42.080Z,3.00
2022-07-31T12:26:10.542Z,3.73
2022-07-31T12:28:36.904Z,3.50
2022-07-31T12:31:03.462Z,3.43
2022-07-31T12:33:40.214Z,3.73
2022-07-31T12:36:15.162Z,3.30
2022-07-31T12:38:45.306Z,2.73
2022-07-31T12:41:14.478Z,3.63
2022-07-31T12:43:51.663Z,3.07
2022-07-31T12:46:36.520Z,3.30
2022-07-31T12:49:06.346Z,2.57
2022-07-31T12:51:46.286Z,3.20
2022-07-31T12:54:17.730Z,3.60
2022-07-31T12:56:44.754Z,3.50
2022-07-31T12:59:11.383Z,2.93
2022-07-31T13:01:38.155Z,3.17
2022-07-31T13:04:07.873Z,3.30
2022-07-31T13:06:44.553Z,2.53
2022-07-31T13:09:10.993Z,3.67
2022-07-31T13:11:46.415Z,2.50
2022-07-31T13:14:19.347Z,3.00
2022-07-31T13:16:46.353Z,8.73
2022-07-31T13:19:13.565Z,3.47
2022-07-31T13:21:48.953Z,21.47
2022-07-31T13:24:16.811Z,3.13
2022-07-31T13:26:45.104Z,3.20
2022-07-31T13:29:11.857Z,3.13
2022-07-31T13:31:38.973Z,2.80
2022-07-31T13:34:05.314Z,3.47
2022-07-31T13:36:36.038Z,3.77
2022-07-31T13:39:06.371Z,2.90
2022-07-31T13:41:34.226Z,3.43
2022-07-31T13:44:01.048Z,3.20
2022-07-31T13:46:27.755Z,3.23
2022-07-31T13:48:56.562Z,4.87
2022-07-31T13:51:24.081Z,3.20
2022-07-31T13:53:55.513Z,2.93
2022-07-31T13:56:39.106Z,3.77
2022-07-31T13:59:08.174Z,5.40
2022-07-31T14:02:02.118Z,4.30
2022-07-31T14:04:23.630Z,2.97
2022-07-31T14:06:50.483Z,3.77
2022-07-31T14:09:18.250Z,3.87
2022-07-31T14:11:44.750Z,3.33
2022-07-31T14:14:12.193Z,3.10
2022-07-31T14:16:39.465Z,2.97
2022-07-31T14:19:05.909Z,3.00
2022-07-31T14:21:33.673Z,3.17
2022-07-31T14:24:00.125Z,3.47
2022-07-31T14:26:26.451Z,3.50
2022-07-31T14:28:53.109Z,2.57
2022-07-31T14:31:19.425Z,2.87
2022-07-31T14:33:45.745Z,2.77
2022-07-31T14:36:12.229Z,2.97
2022-07-31T14:38:38.631Z,3.33
2022-07-31T14:41:05.018Z,3.20
2022-07-31T14:43:31.491Z,3.00
2022-07-31T14:45:57.781Z,2.87
2022-07-31T14:48:24.189Z,3.20
2022-07-31T14:50:50.489Z,2.80
2022-07-31T14:53:16.994Z,3.37
2022-07-31T14:55:43.364Z,3.00
2022-07-31T14:58:09.929Z,2.63
2022-07-31T15:00:36.333Z,2.90
2022-07-31T15:03:02.686Z,3.00
2022-07-31T15:06:39.551Z,3.10
2022-07-31T15:08:15.534Z,3.28
2022-07-31T15:10:41.912Z,2.90
2022-07-31T15:13:08.368Z,2.97
2022-07-31T15:15:34.757Z,2.10
2022-07-31T15:18:01.163Z,2.42
2022-07-31T15:20:32.878Z,2.13
2022-07-31T15:22:59.985Z,3.15
2022-07-31T15:25:26.371Z,2.20
2022-07-31T15:27:52.767Z,2.15
2022-07-31T15:30:21.170Z,3.03
2022-07-31T15:32:47.741Z,2.45
2022-07-31T15:35:14.628Z,4.77
2022-07-31T15:37:44.071Z,2.67
2022-07-31T15:40:11.766Z,2.65
2022-07-31T15:42:42.578Z,2.42
2022-07-31T15:45:13.455Z,2.63
2022-07-31T15:47:40.909Z,2.83
2022-07-31T15:50:09.753Z,2.63
2022-07-31T15:52:36.663Z,9.93
2022-07-31T15:55:03.856Z,2.50
2022-07-31T15:57:30.453Z,3.95
2022-07-31T15:59:56.810Z,2.20
2022-07-31T16:02:23.707Z,5.57
2022-07-31T16:04:53.120Z,7.65
2022-07-31T16:08:28.733Z,2.83
2022-07-31T16:10:15.204Z,3.22
2022-07-31T16:12:43.006Z,2.30
2022-07-31T16:15:09.746Z,3.25
2022-07-31T16:17:39.061Z,2.70
2022-07-31T16:20:08.513Z,3.33
2022-07-31T16:22:35.524Z,2.83
2022-07-31T16:25:02.189Z,3.03
2022-07-31T16:27:28.611Z,2.55
2022-07-31T16:29:57.822Z,3.17
2022-07-31T16:32:27.620Z,3.00
2022-07-31T16:34:58.352Z,3.83
2022-07-31T16:37:49.878Z,4.10
2022-07-31T16:40:28.901Z,3.65
2022-07-31T16:43:51.067Z,3.90
2022-07-31T16:45:55.048Z,3.23
2022-07-31T16:48:21.657Z,3.43
2022-07-31T16:50:54.151Z,2.80
2022-07-31T16:54:14.476Z,2.80
2022-07-31T16:56:09.554Z,2.83
2022-07-31T16:58:36.100Z,2.93
2022-07-31T17:01:04.183Z,3.87
2022-07-31T17:03:58.546Z,5.70
2022-07-31T17:06:16.993Z,3.03
2022-07-31T17:08:43.799Z,4.73
2022-07-31T17:11:10.198Z,2.93
2022-07-31T17:13:36.614Z,2.67
2022-07-31T17:16:03.381Z,3.77
2022-07-31T17:18:29.826Z,3.90
2022-07-31T17:20:56.924Z,3.13
2022-07-31T17:23:44.348Z,4.00
2022-07-31T17:26:21.138Z,4.10
2022-07-31T17:28:48.026Z,3.70
2022-07-31T17:31:14.386Z,3.23
2022-07-31T17:33:58.761Z,3.50
2022-07-31T17:36:28.220Z,3.90
2022-07-31T17:38:54.640Z,15.77
2022-07-31T17:41:24.585Z,3.13
2022-07-31T17:43:53.253Z,3.00
2022-07-31T17:46:28.149Z,2.83
2022-07-31T17:48:56.451Z,2.90
2022-07-31T17:51:23.238Z,2.60
2022-07-31T17:53:58.740Z,2.43
2022-07-31T17:56:26.183Z,3.10
2022-07-31T17:58:52.490Z,2.90
2022-07-31T18:01:18.845Z,2.53
2022-07-31T18:03:45.595Z,2.60
2022-07-31T18:06:11.942Z,3.60
2022-07-31T18:08:38.334Z,3.00
2022-07-31T18:11:06.422Z,4.67
2022-07-31T18:13:48.148Z,4.20
2022-07-31T18:16:15.857Z,4.30
2022-07-31T18:18:42.187Z,4.33
2022-07-31T18:21:08.526Z,4.50
2022-07-31T18:23:34.978Z,5.33
2022-07-31T18:26:02.653Z,5.00
2022-07-31T18:28:29.385Z,5.00
2022-07-31T18:30:55.802Z,5.83
2022-07-31T18:33:22.239Z,5.70
2022-07-31T18:35:48.772Z,5.13
2022-07-31T18:38:15.383Z,6.17
2022-07-31T18:40:41.715Z,5.40
2022-07-31T18:43:08.237Z,5.40
2022-07-31T18:45:34.622Z,6.17
2022-07-31T18:48:01.023Z,8.87
2022-07-31T18:51:01.371Z,5.63
2022-07-31T18:53:14.777Z,6.13
2022-07-31T18:55:41.160Z,4.90
2022-07-31T18:58:08.445Z,5.03
2022-07-31T19:00:35.015Z,4.90
2022-07-31T19:03:01.461Z,5.33
2022-07-31T19:05:28.083Z,5.67
2022-07-31T19:07:54.464Z,6.10
2022-07-31T19:10:30.705Z,6.53
2022-07-31T19:12:57.883Z,7.13
2022-07-31T19:15:24.241Z,6.67
2022-07-31T19:17:50.584Z,7.33
2022-07-31T19:20:55.734Z,6.70
2022-07-31T19:23:06.220Z,6.27
2022-07-31T19:25:59.466Z,6.60
2022-07-31T19:28:26.691Z,6.20
2022-07-31T19:30:54.117Z,6.83
2022-07-31T19:33:20.467Z,5.80
2022-07-31T19:35:55.348Z,5.63
2022-07-31T19:38:26.936Z,6.53
2022-07-31T19:40:53.312Z,6.33
2022-07-31T19:43:20.442Z,6.37
2022-07-31T19:46:02.436Z,6.37
2022-07-31T19:48:33.245Z,6.23
2022-07-31T19:50:59.539Z,7.37
2022-07-31T19:53:25.819Z,7.63
2022-07-31T19:55:52.202Z,7.63
2022-07-31T19:58:19.777Z,6.83
2022-07-31T20:00:46.699Z,6.80
2022-07-31T20:03:13.228Z,7.10
2022-07-31T20:05:39.640Z,6.67
2022-07-31T20:08:06.039Z,7.03
2022-07-31T20:10:32.421Z,6.30
2022-07-31T20:12:58.804Z,10.23
2022-07-31T20:15:25.115Z,5.53
2022-07-31T20:17:51.392Z,11.30
2022-07-31T20:20:17.742Z,6.27
2022-07-31T20:22:44.200Z,8.13
2022-07-31T20:25:11.919Z,7.67
2022-07-31T20:27:46.627Z,6.27
2022-07-31T20:30:12.979Z,13.10
2022-07-31T20:32:48.384Z,6.13
2022-07-31T20:35:32.935Z,6.37
2022-07-31T20:38:02.184Z,6.43
2022-07-31T20:40:28.818Z,6.07
2022-07-31T20:42:55.830Z,8.17
2022-07-31T20:45:23.220Z,6.07
2022-07-31T20:47:51.882Z,6.60
2022-07-31T20:50:18.834Z,6.50
2022-07-31T20:52:48.486Z,6.77
2022-07-31T20:55:15.115Z,7.93
2022-07-31T20:57:42.265Z,7.43
2022-07-31T21:00:09.234Z,7.70
2022-07-31T21:02:35.548Z,7.93
2022-07-31T21:05:02.648Z,7.83
2022-07-31T21:07:30.098Z,12.80
2022-07-31T21:09:57.029Z,7.30
2022-07-31T21:12:28.100Z,7.27
2022-07-31T21:14:55.873Z,7.13
2022-07-31T21:17:22.275Z,7.17
2022-07-31T21:19:48.658Z,10.23
2022-07-31T21:22:14.956Z,8.10
2022-07-31T21:24:41.529Z,7.70
2022-07-31T21:27:10.724Z,7.47
2022-07-31T21:29:37.461Z,9.10
2022-07-31T21:32:04.340Z,13.57
2022-07-31T21:34:31.063Z,8.40
2022-07-31T21:36:57.720Z,7.00
2022-07-31T21:39:26.913Z,7.33
2022-07-31T21:41:53.457Z,8.90
2022-07-31T21:44:20.109Z,7.93
2022-07-31T21:46:51.710Z,7.37
2022-07-31T21:49:20.154Z,7.63
2022-07-31T21:51:46.513Z,7.43
2022-07-31T21:54:15.285Z,8.40
2022-07-31T21:56:41.989Z,8.27
2022-07-31T21:59:08.348Z,8.27
2022-07-31T22:01:35.234Z,11.77
2022-07-31T22:04:01.641Z,8.13
2022-07-31T22:06:46.657Z,14.13
2022-07-31T22:09:12.977Z,8.13
2022-07-31T22:11:43.158Z,7.63
2022-07-31T22:14:26.522Z,7.00
2022-07-31T22:16:52.881Z,7.30
2022-07-31T22:19:19.251Z,9.03
2022-07-31T22:21:45.814Z,8.00
2022-07-31T22:24:12.220Z,11.73
2022-07-31T22:26:59.589Z,7.70
2022-07-31T22:29:26.638Z,10.27
2022-07-31T22:31:53.950Z,10.70
2022-07-31T22:34:36.984Z,8.60
2022-07-31T22:37:05.065Z,8.10
2022-07-31T22:39:32.089Z,8.70
2022-07-31T22:41:59.879Z,8.30
2022-07-31T22:44:27.138Z,8.50
2022-07-31T22:46:54.070Z,8.70
2022-07-31T22:49:21.070Z,8.50
2022-07-31T22:51:47.500Z,8.73
2022-07-31T22:54:13.874Z,9.87
2022-07-31T22:56:40.181Z,10.17
2022-07-31T22:59:08.713Z,9.47
2022-07-31T23:01:35.004Z,8.80
2022-07-31T23:04:01.324Z,9.93
2022-07-31T23:06:30.987Z,8.20
2022-07-31T23:08:59.018Z,9.47
2022-07-31T23:11:25.400Z,14.10
2022-07-31T23:13:51.882Z,10.30
2022-07-31T23:16:18.229Z,9.93
2022-07-31T23:18:44.563Z,16.03
2022-07-31T23:21:10.988Z,10.80
2022-07-31T23:23:37.693Z,11.53
2022-07-31T23:26:04.128Z,11.30
2022-07-31T23:28:30.538Z,11.83
2022-07-31T23:30:56.838Z,14.40
2022-07-31T23:33:23.301Z,12.97
2022-07-31T23:35:49.663Z,16.07
2022-07-31T23:38:16.039Z,13.17
2022-07-31T23:40:42.325Z,17.60
2022-07-31T23:43:08.726Z,16.37
2022-07-31T23:45:35.996Z,19.53
2022-07-31T23:48:04.578Z,14.50
2022-07-31T23:50:31.368Z,14.93
2022-07-31T23:52:57.701Z,14.37
2022-07-31T23:55:24.219Z,14.67
2022-07-31T23:57:50.569Z,14.37
